createdAt,value
2019-05-14T00:02:21.961Z,4.20
2019-05-14T00:04:53.470Z,4.97
2019-05-14T00:07:24.744Z,5.08
2019-05-14T00:09:55.905Z,6.05
2019-05-14T00:12:27.087Z,4.62
2019-05-14T00:14:58.601Z,5.20
2019-05-14T00:17:31.919Z,5.53
2019-05-14T00:20:09.723Z,3.22
2019-05-14T00:22:36.873Z,5.22
2019-05-14T00:25:08.267Z,6.95
2019-05-14T00:27:41.473Z,6.72
2019-05-14T00:30:12.797Z,4.20
2019-05-14T00:32:44.037Z,5.97
2019-05-14T00:35:15.499Z,6.05
2019-05-14T00:37:46.642Z,8.45
2019-05-14T00:40:18.106Z,7.72
2019-05-14T00:42:49.624Z,5.60
2019-05-14T00:45:21.906Z,6.62
2019-05-14T00:47:54.109Z,6.25
2019-05-14T00:50:25.629Z,3.35
2019-05-14T00:52:56.917Z,3.95
2019-05-14T00:55:28.070Z,5.05
2019-05-14T00:58:02.123Z,5.53
2019-05-14T01:00:33.034Z,4.70
2019-05-14T01:05:36.002Z,7.58
2019-05-14T01:10:37.113Z,6.40
2019-05-14T01:13:08.277Z,6.40
2019-05-14T01:15:41.520Z,5.55
2019-05-14T01:18:13.127Z,5.55
2019-05-14T01:20:44.289Z,3.87
2019-05-14T01:23:15.525Z,3.60
2019-05-14T01:25:47.066Z,5.10
2019-05-14T01:28:18.215Z,5.87
2019-05-14T01:30:51.903Z,5.60
2019-05-14T01:33:22.993Z,5.15
2019-05-14T01:35:54.484Z,4.70
2019-05-14T01:38:26.028Z,5.05
2019-05-14T01:40:57.197Z,3.52
2019-05-14T01:43:28.378Z,5.37
2019-05-14T01:46:01.802Z,7.85
2019-05-14T01:48:32.726Z,4.85
2019-05-14T01:51:03.919Z,6.87
2019-05-14T01:53:35.083Z,4.78
2019-05-14T01:56:06.650Z,8.10
2019-05-14T01:58:37.860Z,4.05
2019-05-14T02:01:09.021Z,6.60
2019-05-14T02:03:41.063Z,9.43
2019-05-14T02:06:12.424Z,6.47
2019-05-14T02:08:43.636Z,4.65
2019-05-14T02:11:15.098Z,4.25
2019-05-14T02:13:48.441Z,6.50
2019-05-14T02:16:19.122Z,7.45
2019-05-14T02:18:52.232Z,5.42
2019-05-14T02:21:26.267Z,6.80
2019-05-14T02:23:57.453Z,6.72
2019-05-14T02:26:28.608Z,6.75
2019-05-14T02:29:01.976Z,4.35
2019-05-14T02:31:33.800Z,5.47
2019-05-14T02:34:05.269Z,4.45
2019-05-14T02:36:36.424Z,5.28
2019-05-14T02:39:10.207Z,6.30
2019-05-14T02:41:41.218Z,5.62
2019-05-14T02:44:12.985Z,4.17
2019-05-14T02:49:14.128Z,5.12
2019-05-14T02:51:45.378Z,5.20
2019-05-14T02:54:20.052Z,8.20
2019-05-14T02:56:50.036Z,5.72
2019-05-14T02:59:21.242Z,5.12
2019-05-14T03:01:52.705Z,6.47
2019-05-14T03:04:24.778Z,5.47
2019-05-14T03:06:59.081Z,5.12
2019-05-14T03:09:29.557Z,4.83
2019-05-14T03:12:01.203Z,4.60
2019-05-14T03:14:32.469Z,4.08
2019-05-14T03:17:03.681Z,5.28
2019-05-14T03:19:34.881Z,3.85
2019-05-14T03:22:09.763Z,7.42
2019-05-14T03:24:39.878Z,7.72
2019-05-14T03:27:11.233Z,7.95
2019-05-14T03:29:42.457Z,4.92
2019-05-14T03:32:14.189Z,5.17
2019-05-14T03:37:22.652Z,4.80
2019-05-14T03:39:49.660Z,5.75
2019-05-14T03:42:20.839Z,5.08
2019-05-14T03:44:52.040Z,4.47
2019-05-14T03:47:24.270Z,7.47
2019-05-14T03:49:58.698Z,5.78
2019-05-14T03:52:29.443Z,4.58
2019-05-14T03:55:04.439Z,5.15
2019-05-14T03:57:34.611Z,6.50
2019-05-14T04:00:09.939Z,5.33
2019-05-14T04:02:40.061Z,5.12
2019-05-14T04:05:13.070Z,5.60
2019-05-14T04:07:49.906Z,6.72
2019-05-14T04:10:19.685Z,6.20
2019-05-14T04:12:52.241Z,4.92
2019-05-14T04:15:29.638Z,5.47
2019-05-14T04:17:59.986Z,6.67
2019-05-14T04:20:34.874Z,7.25
2019-05-14T04:23:09.352Z,3.90
2019-05-14T04:25:42.080Z,5.37
2019-05-14T04:28:19.114Z,6.58
2019-05-14T04:30:51.928Z,6.83
2019-05-14T04:33:25.485Z,6.15
2019-05-14T04:36:00.252Z,5.62
2019-05-14T04:38:31.863Z,7.00
2019-05-14T04:41:03.420Z,6.58
2019-05-14T04:43:34.675Z,6.83
2019-05-14T04:46:09.939Z,5.58
2019-05-14T04:48:43.240Z,6.42
2019-05-14T04:51:12.552Z,4.47
2019-05-14T04:53:44.095Z,6.22
2019-05-14T04:58:49.267Z,6.10
2019-05-14T05:01:20.604Z,6.15
2019-05-14T05:03:51.848Z,4.70
2019-05-14T05:06:23.085Z,5.62
2019-05-14T05:08:59.703Z,9.25
2019-05-14T05:11:29.618Z,5.00
2019-05-14T05:14:00.781Z,6.40
2019-05-14T05:16:32.075Z,6.42
2019-05-14T05:19:03.990Z,5.55
2019-05-14T05:24:05.343Z,5.62
2019-05-14T05:26:39.037Z,5.33
2019-05-14T05:29:10.475Z,5.15
2019-05-14T05:31:43.198Z,4.65
2019-05-14T05:34:14.354Z,4.08
2019-05-14T05:36:45.604Z,4.12
2019-05-14T05:39:18.941Z,6.47
2019-05-14T05:41:50.224Z,7.50
2019-05-14T05:44:21.402Z,6.30
2019-05-14T05:46:52.854Z,6.97
2019-05-14T05:49:24.341Z,7.85
2019-05-14T05:51:56.183Z,9.35
2019-05-14T05:54:29.244Z,6.25
2019-05-14T05:57:00.615Z,6.22
2019-05-14T05:59:31.777Z,6.25
2019-05-14T06:02:03.393Z,4.22
2019-05-14T06:04:34.606Z,6.53
2019-05-14T06:07:05.763Z,5.67
2019-05-14T06:09:38.186Z,6.85
2019-05-14T06:12:09.886Z,6.50
2019-05-14T06:14:41.062Z,5.78
2019-05-14T06:17:12.590Z,4.62
2019-05-14T06:19:44.178Z,6.87
2019-05-14T06:22:15.642Z,7.30
2019-05-14T06:24:48.543Z,4.85
2019-05-14T06:27:19.694Z,5.60
2019-05-14T06:29:54.328Z,8.18
2019-05-14T06:32:24.585Z,7.12
2019-05-14T06:34:56.095Z,5.42
2019-05-14T06:37:27.389Z,10.28
2019-05-14T06:39:59.073Z,5.15
2019-05-14T06:42:30.647Z,5.25
2019-05-14T06:45:01.864Z,4.90
2019-05-14T06:47:33.379Z,6.85
2019-05-14T06:50:05.272Z,5.65
2019-05-14T06:55:08.883Z,7.47
2019-05-14T06:57:40.250Z,4.80
2019-05-14T07:00:11.964Z,4.22
2019-05-14T07:05:15.627Z,5.40
2019-05-14T07:07:49.324Z,6.50
2019-05-14T07:10:20.566Z,4.40
2019-05-14T07:12:51.820Z,7.53
2019-05-14T07:15:23.055Z,7.72
2019-05-14T07:17:54.290Z,4.00
2019-05-14T07:20:25.546Z,4.58
2019-05-14T07:22:58.617Z,4.12
2019-05-14T07:25:30.259Z,7.65
2019-05-14T07:28:01.424Z,4.55
2019-05-14T07:30:34.038Z,7.10
2019-05-14T07:33:05.405Z,4.90
2019-05-14T07:35:38.226Z,4.97
2019-05-14T07:38:09.859Z,4.67
2019-05-14T07:40:41.087Z,8.53
2019-05-14T07:43:12.637Z,6.97
2019-05-14T07:45:43.878Z,5.67
2019-05-14T07:48:15.119Z,5.15
2019-05-14T07:50:51.908Z,5.97
2019-05-14T07:53:34.010Z,7.08
2019-05-14T07:55:53.794Z,7.80
2019-05-14T07:58:24.994Z,4.85
2019-05-14T08:00:58.594Z,6.70
2019-05-14T08:03:30.051Z,8.33
2019-05-14T08:06:01.265Z,7.28
2019-05-14T08:08:32.451Z,6.97
2019-05-14T08:11:03.916Z,5.42
2019-05-14T08:13:35.160Z,4.90
2019-05-14T08:16:08.792Z,5.62
2019-05-14T08:18:39.918Z,3.40
2019-05-14T08:21:11.376Z,4.22
2019-05-14T08:23:43.456Z,5.20
2019-05-14T08:26:14.623Z,4.37
2019-05-14T08:28:45.787Z,3.35
2019-05-14T08:31:18.692Z,4.92
2019-05-14T08:33:50.468Z,5.33
2019-05-14T08:36:21.917Z,3.72
2019-05-14T08:38:53.201Z,3.98
2019-05-14T08:41:24.750Z,6.85
2019-05-14T08:43:55.939Z,4.47
2019-05-14T08:46:28.365Z,5.22
2019-05-14T08:48:59.684Z,3.87
2019-05-14T08:51:30.869Z,5.15
2019-05-14T08:54:02.388Z,6.05
2019-05-14T08:56:34.013Z,4.78
2019-05-14T08:59:05.328Z,6.53
2019-05-14T09:01:38.738Z,5.72
2019-05-14T09:04:09.482Z,7.05
2019-05-14T09:06:41.045Z,5.83
2019-05-14T09:09:13.550Z,3.70
2019-05-14T09:11:46.582Z,8.40
2019-05-14T09:14:18.796Z,6.97
2019-05-14T09:16:50.977Z,6.87
2019-05-14T09:19:23.878Z,6.95
2019-05-14T09:21:58.610Z,7.55
2019-05-14T09:24:29.358Z,8.23
2019-05-14T09:27:05.454Z,9.23
2019-05-14T09:29:35.917Z,7.80
2019-05-14T09:32:09.554Z,5.05
2019-05-14T09:34:40.549Z,9.85
2019-05-14T09:37:12.219Z,4.60
2019-05-14T09:39:44.210Z,8.13
2019-05-14T09:42:15.501Z,5.87
2019-05-14T09:44:49.015Z,7.03
2019-05-14T09:47:20.976Z,6.67
2019-05-14T09:49:52.259Z,5.60
2019-05-14T09:52:23.506Z,5.70
2019-05-14T09:54:55.576Z,7.90
2019-05-14T09:57:28.225Z,6.08
2019-05-14T09:59:59.857Z,5.40
2019-05-14T10:02:31.436Z,7.22
2019-05-14T10:05:02.877Z,4.50
2019-05-14T10:07:34.703Z,5.78
2019-05-14T10:10:07.428Z,5.62
2019-05-14T10:12:51.234Z,7.97
2019-05-14T10:15:12.991Z,5.53
2019-05-14T10:20:14.944Z,6.28
2019-05-14T10:22:48.227Z,4.53
2019-05-14T10:25:19.667Z,4.08
2019-05-14T10:27:51.273Z,7.95
2019-05-14T10:30:23.235Z,6.33
2019-05-14T10:35:24.524Z,6.62
2019-05-14T10:37:55.853Z,7.53
2019-05-14T10:40:29.208Z,5.28
2019-05-14T10:43:00.959Z,3.83
2019-05-14T10:45:32.865Z,5.05
2019-05-14T10:48:04.892Z,5.42
2019-05-14T10:50:55.174Z,5.60
2019-05-14T10:53:10.247Z,5.47
2019-05-14T10:58:11.666Z,8.70
2019-05-14T11:00:43.219Z,7.83
2019-05-14T11:03:14.777Z,8.20
2019-05-14T11:05:48.166Z,5.17
2019-05-14T11:08:20.928Z,9.43
2019-05-14T11:10:52.481Z,9.80
2019-05-14T11:13:23.716Z,11.40
2019-05-14T11:15:55.609Z,8.75
2019-05-14T11:18:29.160Z,7.62
2019-05-14T11:21:18.897Z,9.33
2019-05-14T11:23:34.587Z,5.65
2019-05-14T11:28:36.173Z,6.15
2019-05-14T11:31:09.169Z,7.17
2019-05-14T11:33:40.884Z,4.25
2019-05-14T11:36:12.849Z,5.62
2019-05-14T11:38:44.427Z,5.47
2019-05-14T11:41:15.732Z,5.33
2019-05-14T11:43:49.387Z,3.65
2019-05-14T11:46:33.301Z,4.50
2019-05-14T11:48:52.840Z,4.70
2019-05-14T11:51:54.758Z,4.15
2019-05-14T11:53:58.808Z,5.65
2019-05-14T11:56:30.927Z,6.37
2019-05-14T11:59:02.400Z,2.75
2019-05-14T12:01:34.953Z,3.00
2019-05-14T12:04:09.044Z,3.98
2019-05-14T12:06:39.548Z,5.08
2019-05-14T12:09:12.110Z,4.83
2019-05-14T12:11:43.374Z,4.47
2019-05-14T12:14:14.651Z,4.78
2019-05-14T12:16:49.211Z,4.00
2019-05-14T12:19:19.221Z,3.98
2019-05-14T12:22:03.674Z,4.30
2019-05-14T12:24:23.625Z,4.47
2019-05-14T12:26:55.212Z,5.80
2019-05-14T12:29:29.140Z,6.12
2019-05-14T12:31:59.656Z,3.85
2019-05-14T12:34:31.344Z,6.15
2019-05-14T12:39:34.081Z,6.10
2019-05-14T12:42:05.656Z,4.62
2019-05-14T12:44:40.609Z,6.20
2019-05-14T12:47:10.322Z,5.75
2019-05-14T12:49:41.850Z,8.20
2019-05-14T12:52:24.599Z,7.42
2019-05-14T12:54:46.634Z,3.67
2019-05-14T12:57:18.929Z,7.75
2019-05-14T12:59:51.647Z,5.08
2019-05-14T13:02:22.908Z,4.90
2019-05-14T13:04:54.154Z,3.90
2019-05-14T13:07:25.710Z,4.08
2019-05-14T13:09:58.431Z,5.65
2019-05-14T13:12:29.884Z,7.25
2019-05-14T13:15:01.089Z,7.05
2019-05-14T13:17:32.627Z,3.55
2019-05-14T13:20:04.992Z,3.70
2019-05-14T13:22:45.370Z,3.37
2019-05-14T13:25:11.284Z,3.55
2019-05-14T13:27:43.317Z,3.92
2019-05-14T13:30:15.229Z,2.90
2019-05-14T13:32:48.767Z,3.70
2019-05-14T13:35:19.997Z,3.02
2019-05-14T13:37:52.556Z,5.83
2019-05-14T13:40:24.234Z,2.83
2019-05-14T13:42:55.926Z,3.52
2019-05-14T13:45:30.032Z,2.22
2019-05-14T13:48:01.700Z,2.00
2019-05-14T13:50:33.028Z,2.47
2019-05-14T13:53:09.226Z,2.80
2019-05-14T13:55:44.020Z,2.85
2019-05-14T13:58:10.376Z,2.62
2019-05-14T14:00:42.111Z,2.83
2019-05-14T14:05:43.493Z,3.27
2019-05-14T14:08:14.732Z,3.85
2019-05-14T14:10:53.004Z,3.60
2019-05-14T14:13:20.148Z,3.83
2019-05-14T14:15:51.788Z,2.58
2019-05-14T14:18:26.206Z,7.47
2019-05-14T14:20:56.461Z,3.52
2019-05-14T14:23:30.997Z,4.65
2019-05-14T14:26:02.305Z,2.45
2019-05-14T14:28:33.808Z,2.65
2019-05-14T14:31:07.434Z,3.35
2019-05-14T14:33:39.144Z,3.47
2019-05-14T14:36:10.629Z,2.67
2019-05-14T14:38:42.567Z,3.55
2019-05-14T14:41:14.237Z,3.52
2019-05-14T14:43:52.061Z,3.52
2019-05-14T14:46:19.984Z,2.47
2019-05-14T14:48:51.259Z,3.10
2019-05-14T14:51:22.541Z,3.95
2019-05-14T14:54:00.786Z,3.20
2019-05-14T14:56:28.376Z,2.35
2019-05-14T14:59:00.555Z,4.30
2019-05-14T15:01:32.851Z,4.60
2019-05-14T15:04:04.604Z,3.27
2019-05-14T15:06:39.427Z,3.37
2019-05-14T15:09:09.899Z,3.60
2019-05-14T15:11:42.194Z,3.22
2019-05-14T15:14:13.520Z,3.60
2019-05-14T15:16:45.190Z,3.98
2019-05-14T15:19:19.123Z,3.15
2019-05-14T15:21:50.098Z,3.02
2019-05-14T15:24:22.181Z,3.30
2019-05-14T15:26:53.530Z,2.22
2019-05-14T15:29:25.132Z,2.92
2019-05-14T15:31:59.236Z,3.62
2019-05-14T15:34:30.212Z,2.30
2019-05-14T15:37:01.401Z,3.35
2019-05-14T15:39:33.470Z,3.05
2019-05-14T15:42:06.387Z,2.25
2019-05-14T15:44:48.576Z,3.37
2019-05-14T15:47:13.268Z,2.45
2019-05-14T15:49:44.823Z,2.90
2019-05-14T15:52:19.184Z,3.42
2019-05-14T15:54:50.738Z,3.30
2019-05-14T15:57:23.715Z,3.10
2019-05-14T16:02:25.571Z,2.12
2019-05-14T16:04:59.154Z,4.58
2019-05-14T16:07:30.585Z,4.78
2019-05-14T16:10:01.803Z,3.67
2019-05-14T16:12:33.078Z,1.95
2019-05-14T16:15:04.753Z,2.25
2019-05-14T16:17:45.614Z,4.17
2019-05-14T16:20:10.678Z,3.50
2019-05-14T16:22:42.383Z,3.60
2019-05-14T16:25:14.168Z,3.35
2019-05-14T16:30:19.254Z,2.87
2019-05-14T16:32:50.381Z,3.90
2019-05-14T16:35:22.443Z,4.33
2019-05-14T16:37:53.708Z,3.35
2019-05-14T16:40:28.625Z,3.30
2019-05-14T16:42:59.118Z,3.55
2019-05-14T16:45:30.875Z,2.50
2019-05-14T16:48:02.087Z,3.40
2019-05-14T16:50:33.436Z,2.55
2019-05-14T16:53:04.739Z,2.92
2019-05-14T16:55:38.408Z,3.42
2019-05-14T16:58:09.543Z,6.03
2019-05-14T17:00:41.137Z,5.83
2019-05-14T17:03:12.509Z,5.30
2019-05-14T17:05:43.798Z,4.10
2019-05-14T17:08:15.047Z,2.75
2019-05-14T17:10:48.258Z,2.80
2019-05-14T17:13:20.375Z,4.30
2019-05-14T17:15:51.641Z,2.85
2019-05-14T17:18:23.260Z,2.90
2019-05-14T17:20:54.524Z,2.12
2019-05-14T17:23:28.277Z,2.87
2019-05-14T17:25:59.358Z,3.85
2019-05-14T17:28:31.749Z,2.40
2019-05-14T17:31:03.814Z,3.70
2019-05-14T17:33:35.754Z,1.50
2019-05-14T17:38:39.036Z,2.47
2019-05-14T17:41:10.584Z,2.60
2019-05-14T17:43:42.453Z,2.00
2019-05-14T17:48:44.243Z,2.85
2019-05-14T17:51:17.904Z,3.05
2019-05-14T17:53:49.944Z,3.02
2019-05-14T17:58:52.902Z,4.75
2019-05-14T18:01:24.536Z,2.90
2019-05-14T18:03:58.344Z,2.83
2019-05-14T18:06:29.958Z,3.05
2019-05-14T18:09:01.905Z,3.55
2019-05-14T18:11:34.776Z,2.95
2019-05-14T18:14:11.616Z,2.02
2019-05-14T18:16:39.870Z,2.35
2019-05-14T18:19:11.494Z,2.67
2019-05-14T18:21:42.782Z,4.58
2019-05-14T18:24:14.157Z,2.65
2019-05-14T18:26:47.935Z,3.92
2019-05-14T18:29:19.125Z,2.92
2019-05-14T18:31:53.565Z,2.58
2019-05-14T18:34:23.447Z,1.30
2019-05-14T18:36:55.068Z,2.70
2019-05-14T18:39:28.251Z,2.67
2019-05-14T18:42:00.894Z,1.92
2019-05-14T18:44:32.815Z,2.27
2019-05-14T18:47:04.378Z,1.70
2019-05-14T18:49:36.557Z,2.77
2019-05-14T18:52:08.920Z,4.03
2019-05-14T18:54:40.361Z,2.80
2019-05-14T18:57:12.282Z,3.80
2019-05-14T19:02:14.191Z,3.52
2019-05-14T19:07:15.717Z,3.67
2019-05-14T19:09:49.411Z,2.08
2019-05-14T19:12:20.814Z,2.10
2019-05-14T19:14:52.076Z,3.40
2019-05-14T19:17:24.767Z,2.05
2019-05-14T19:19:55.994Z,2.50
2019-05-14T19:22:28.866Z,2.92
2019-05-14T19:25:00.248Z,2.22
2019-05-14T19:27:32.024Z,2.85
2019-05-14T19:32:34.455Z,2.85
2019-05-14T19:35:08.411Z,2.77
2019-05-14T19:37:39.507Z,2.77
2019-05-14T19:40:12.467Z,2.58
2019-05-14T19:42:44.490Z,3.00
2019-05-14T19:45:15.708Z,3.47
2019-05-14T19:47:49.140Z,3.22
2019-05-14T19:50:20.042Z,3.15
2019-05-14T19:52:51.931Z,2.45
2019-05-14T19:55:23.087Z,5.37
2019-05-14T19:57:54.882Z,3.42
2019-05-14T20:02:59.707Z,2.77
2019-05-14T20:05:31.185Z,3.10
2019-05-14T20:10:32.682Z,2.40
2019-05-14T20:13:04.799Z,2.92
2019-05-14T20:15:38.743Z,3.62
2019-05-14T20:18:09.779Z,3.95
2019-05-14T20:20:41.802Z,2.05
2019-05-14T20:23:13.597Z,2.10
2019-05-14T20:25:48.020Z,2.17
2019-05-14T20:28:19.444Z,2.90
2019-05-14T20:30:51.772Z,3.00
2019-05-14T20:33:23.000Z,1.80
2019-05-14T20:35:54.575Z,2.37
2019-05-14T20:38:26.342Z,3.50
2019-05-14T20:40:58.205Z,1.67
2019-05-14T20:43:29.494Z,1.65
2019-05-14T20:46:00.692Z,2.77
2019-05-14T20:48:32.449Z,1.98
2019-05-14T20:51:04.488Z,1.98
2019-05-14T20:53:36.320Z,1.75
2019-05-14T20:58:39.549Z,2.12
2019-05-14T21:01:11.545Z,1.87
2019-05-14T21:03:44.105Z,1.95
2019-05-14T21:06:15.398Z,2.25
2019-05-14T21:08:48.695Z,2.25
2019-05-14T21:11:19.898Z,2.25
2019-05-14T21:13:51.169Z,1.60
2019-05-14T21:16:22.438Z,1.32
2019-05-14T21:18:53.677Z,3.02
2019-05-14T21:21:24.829Z,1.98
2019-05-14T21:23:58.467Z,3.35
2019-05-14T21:26:29.969Z,1.70
2019-05-14T21:29:01.274Z,1.87
2019-05-14T21:31:32.501Z,1.82
2019-05-14T21:34:03.727Z,1.50
2019-05-14T21:36:35.042Z,3.00
2019-05-14T21:39:08.134Z,2.98
2019-05-14T21:41:39.497Z,1.77
2019-05-14T21:44:10.706Z,2.20
2019-05-14T21:46:42.159Z,2.52
2019-05-14T21:49:13.611Z,2.83
2019-05-14T21:51:44.791Z,1.92
2019-05-14T21:54:15.976Z,2.30
2019-05-14T21:56:49.559Z,1.70
2019-05-14T21:59:20.287Z,2.98
2019-05-14T22:01:51.517Z,3.55
2019-05-14T22:04:22.853Z,2.87
2019-05-14T22:06:54.005Z,2.33
2019-05-14T22:09:25.254Z,3.22
2019-05-14T22:11:58.299Z,2.83
2019-05-14T22:14:29.252Z,2.70
2019-05-14T22:17:00.413Z,2.25
2019-05-14T22:19:31.924Z,4.65
2019-05-14T22:22:03.123Z,2.77
2019-05-14T22:24:34.364Z,2.72
2019-05-14T22:27:05.585Z,3.98
2019-05-14T22:29:36.854Z,2.98
2019-05-14T22:32:08.274Z,4.03
2019-05-14T22:34:41.468Z,3.20
2019-05-14T22:37:13.246Z,3.10
2019-05-14T22:39:44.870Z,2.42
2019-05-14T22:42:18.743Z,3.15
2019-05-14T22:44:50.371Z,2.72
2019-05-14T22:47:22.049Z,2.62
2019-05-14T22:49:53.654Z,2.42
2019-05-14T22:52:25.498Z,3.55
2019-05-14T22:57:30.872Z,2.75
2019-05-14T22:59:59.805Z,2.77
2019-05-14T23:02:31.266Z,3.55
2019-05-14T23:05:02.450Z,2.60
2019-05-14T23:07:33.970Z,3.67
2019-05-14T23:10:05.695Z,3.55
2019-05-14T23:15:09.663Z,2.62
2019-05-14T23:17:41.227Z,3.37
2019-05-14T23:20:13.535Z,3.05
2019-05-14T23:22:45.020Z,2.22
2019-05-14T23:25:18.262Z,4.05
2019-05-14T23:27:49.502Z,3.05
2019-05-14T23:30:30.966Z,3.12
2019-05-14T23:33:02.251Z,3.40
2019-05-14T23:35:33.862Z,3.52
2019-05-14T23:38:08.198Z,2.77
2019-05-14T23:40:39.002Z,2.22
2019-05-14T23:43:10.526Z,4.00
2019-05-14T23:45:41.735Z,2.77
2019-05-14T23:48:13.009Z,4.10
2019-05-14T23:50:44.589Z,4.12
2019-05-14T23:53:18.029Z,3.25
2019-05-14T23:55:48.657Z,3.58
2019-05-14T23:58:20.685Z,3.62
